Avioradar koristi kolačiće da bi Vam omogućio jednostavnije i ugodnije korištenje stranice. 

AVIORADAR - Croatian aviation website

METAR & TAF

[Source: ADDS]
METAR
LDZA 231930Z 00000KT CAVOK 26/18 Q1018 NOSIG =
LDZA 231725Z 2318/2418 VRB02KT CAVOK TX33/2413Z TN19/2403Z LDSP 231930Z 01009KT CAVOK 30/15 Q1016 NOSIG =
LDSP 231725Z 2318/2418 34006KT CAVOK TX34/2412Z TN24/2403Z TEMPO 2319/2323 05010KT BECMG 2409/2411 23012KT BECMG 2416/2418 34006KT LDDU 231930Z 01008KT 320V060 CAVOK 30/12 Q1016 NOSIG =
LDDU 231725Z 2318/2418 01015KT CAVOK TX32/2413Z TN26/2403Z PROB40 TEMPO 2320/2407 02020G33KT BECMG 2408/2410 30010KT BECMG 2416/2418 02010KT LDPL 231930Z 33003KT 300V020 CAVOK 25/15 Q1017 NOSIG =
LDPL 231725Z 2318/2418 VRB02KT CAVOK TX33/2413Z TN22/2403Z BECMG 2410/2412 27010KT LDZD 231930Z 26008KT 220V300 CAVOK 26/17 Q1017 NOSIG =
LDZD 231725Z 2318/2418 33010KT CAVOK TX34/2412Z TN21/2403Z BECMG 2318/2320 06005KT BECMG 2409/2411 31008KT TEMPO 2412/2418 31015KT LDRI 231930Z VRB02KT CAVOK 29/16 Q1017 =
LDRI 231725Z 2318/2418 VRB02KT CAVOK TX34/2413Z TN22/2403Z TEMPO 2412/2417 30008KT LDOS 231930Z 35007KT CAVOK 24/16 Q1017 =
LDOS 231725Z 2318/2418 VRB02KT CAVOK TX32/2413Z TN18/2403Z
TAF
LDZA 231725Z 2318/2418 VRB02KT CAVOK TX33/2413Z TN19/2403Z =
LDSP 231725Z 2318/2418 34006KT CAVOK TX34/2412Z TN24/2403Z TEMPO 2319/2323 05010KT BECMG 2409/2411 23012KT BECMG 2416/2418 34006KT =
LDDU 231725Z 2318/2418 01015KT CAVOK TX32/2413Z TN26/2403Z PROB40 TEMPO 2320/2407 02020G33KT BECMG 2408/2410 30010KT BECMG 2416/2418 02010KT =
LDPL 231725Z 2318/2418 VRB02KT CAVOK TX33/2413Z TN22/2403Z BECMG 2410/2412 27010KT =
LDZD 231725Z 2318/2418 33010KT CAVOK TX34/2412Z TN21/2403Z BECMG 2318/2320 06005KT BECMG 2409/2411 31008KT TEMPO 2412/2418 31015KT =
LDRI 231725Z 2318/2418 VRB02KT CAVOK TX34/2413Z TN22/2403Z TEMPO 2412/2417 30008KT =
LDOS 231725Z 2318/2418 VRB02KT CAVOK TX32/2413Z TN18/2403Z =
SR / SS: 03:28 / 18:35 UTC (Zagreb 2019-07-23)